Time;durP1;ratioP1;P1;durP2;ratioP2;P2;SDS_P1;SDS_P2;PMS_P1;PMS_P2;Temp;Humidity;BMP_temperature;BMP_pressure;BME280_temperature;BME280_humidity;BME280_pressure;Samples;Min_cycle;Max_cycle;Signal;HPM_P1;HPM_P2
2024/03/09 00:00:35;;;;;;;27.75;16.23;;;;;;;;;;4940092;28;20087;-83
2024/03/09 00:03:01;;;;;;;28.08;16.92;;;;;;;;;;4937094;29;20131;-84
2024/03/09 00:05:27;;;;;;;27.98;16.45;;;;;;;;;;4937078;29;20217;-83
2024/03/09 00:07:55;;;;;;;31.35;17.42;;;;;;;;;;4940010;29;20074;-84
2024/03/09 00:10:22;;;;;;;28.73;17.27;;;;;;;;;;4937568;29;20045;-83
2024/03/09 00:12:48;;;;;;;29.33;16.25;;;;;;;;;;4929965;29;20058;-83
2024/03/09 00:15:15;;;;;;;30.80;17.20;;;;;;;;;;4934995;29;20023;-82
2024/03/09 00:17:44;;;;;;;29.20;16.58;;;;;;;;;;4933771;29;20038;-83
2024/03/09 00:20:25;;;;;;;31.10;17.58;;;;;;;;;;4934789;29;20109;-83
2024/03/09 00:22:55;;;;;;;32.17;17.05;;;;;;;;;;4938269;29;20066;-84
2024/03/09 00:25:22;;;;;;;29.65;17.00;;;;;;;;;;4938033;29;20082;-83
2024/03/09 00:27:48;;;;;;;28.42;16.92;;;;;;;;;;4934943;29;20046;-83
2024/03/09 00:30:17;;;;;;;29.15;17.00;;;;;;;;;;4925238;29;20473;-83
2024/03/09 00:32:44;;;;;;;30.75;17.67;;;;;;;;;;4941918;29;20122;-83
2024/03/09 00:35:10;;;;;;;27.98;16.13;;;;;;;;;;4936965;29;20117;-83
2024/03/09 00:37:36;;;;;;;31.42;17.23;;;;;;;;;;4940913;29;20388;-83
2024/03/09 00:40:05;;;;;;;31.63;18.40;;;;;;;;;;4939612;29;20019;-83
2024/03/09 00:42:32;;;;;;;28.10;15.07;;;;;;;;;;4944347;29;20058;-83
2024/03/09 00:45:01;;;;;;;29.85;17.00;;;;;;;;;;4939090;29;20031;-83
2024/03/09 00:47:26;;;;;;;30.17;17.85;;;;;;;;;;4938115;29;20533;-84
2024/03/09 00:49:51;;;;;;;29.33;16.50;;;;;;;;;;4937554;29;20129;-83
2024/03/09 00:52:19;;;;;;;30.25;17.52;;;;;;;;;;4938638;28;20031;-83
2024/03/09 00:54:44;;;;;;;29.02;15.38;;;;;;;;;;4935259;29;20027;-83
2024/03/09 00:57:10;;;;;;;27.20;15.50;;;;;;;;;;4937851;29;20053;-83
2024/03/09 00:59:35;;;;;;;28.92;16.48;;;;;;;;;;4936364;29;20251;-83
2024/03/09 01:02:01;;;;;;;30.08;17.27;;;;;;;;;;4937007;29;20035;-83
2024/03/09 01:04:27;;;;;;;30.10;17.25;;;;;;;;;;4938240;29;20019;-83
2024/03/09 01:06:54;;;;;;;32.58;16.60;;;;;;;;;;4936167;29;20123;-83
2024/03/09 01:09:20;;;;;;;29.30;16.92;;;;;;;;;;4938429;29;20557;-84
2024/03/09 01:11:48;;;;;;;29.08;16.83;;;;;;;;;;4937982;29;20036;-83
2024/03/09 01:14:14;;;;;;;32.25;17.08;;;;;;;;;;4937127;29;20079;-83
2024/03/09 01:16:40;;;;;;;29.65;16.30;;;;;;;;;;4935984;29;20035;-83
2024/03/09 01:19:05;;;;;;;28.38;16.33;;;;;;;;;;4938110;29;20030;-83
2024/03/09 01:21:33;;;;;;;27.55;16.05;;;;;;;;;;4938170;29;20396;-83
2024/03/09 01:24:01;;;;;;;29.92;16.95;;;;;;;;;;4938652;29;20122;-83
2024/03/09 01:26:27;;;;;;;31.70;17.00;;;;;;;;;;4937495;29;20042;-83
2024/03/09 01:28:54;;;;;;;29.95;17.58;;;;;;;;;;4937021;29;20035;-83
2024/03/09 01:31:27;;;;;;;29.15;16.25;;;;;;;;;;4926641;29;20152;-82
2024/03/09 01:33:55;;;;;;;30.60;17.45;;;;;;;;;;4936856;29;20078;-81
2024/03/09 01:36:23;;;;;;;30.38;17.27;;;;;;;;;;4934936;29;20031;-81
2024/03/09 01:38:49;;;;;;;30.98;16.75;;;;;;;;;;4938162;29;20397;-82
2024/03/09 01:41:14;;;;;;;29.48;17.38;;;;;;;;;;4942718;29;20026;-81
2024/03/09 01:43:41;;;;;;;29.08;16.02;;;;;;;;;;4940699;29;20027;-81
2024/03/09 01:46:09;;;;;;;29.02;17.73;;;;;;;;;;4936452;29;20033;-82
2024/03/09 01:48:36;;;;;;;30.05;16.83;;;;;;;;;;4936550;29;20038;-81
2024/03/09 01:51:01;;;;;;;32.97;17.60;;;;;;;;;;4935241;28;20089;-82
2024/03/09 01:53:28;;;;;;;30.55;16.90;;;;;;;;;;4935829;29;20036;-81
2024/03/09 01:55:58;;;;;;;32.53;17.77;;;;;;;;;;4935989;28;20042;-82
2024/03/09 01:58:24;;;;;;;32.75;17.33;;;;;;;;;;4938029;29;20027;-82
2024/03/09 02:00:56;;;;;;;34.15;17.58;;;;;;;;;;4936615;29;20441;-83
2024/03/09 02:03:23;;;;;;;28.90;16.75;;;;;;;;;;4949917;23;20051;-75
2024/03/09 02:05:50;;;;;;;30.60;16.80;;;;;;;;;;4947284;28;20031;-82
2024/03/09 02:08:17;;;;;;;30.98;17.85;;;;;;;;;;4927871;29;20406;-84
2024/03/09 02:10:42;;;;;;;31.83;18.15;;;;;;;;;;4944546;29;20055;-82
2024/03/09 02:13:08;;;;;;;33.58;18.38;;;;;;;;;;4947002;28;20069;-82
2024/03/09 02:15:34;;;;;;;34.30;18.15;;;;;;;;;;4929462;28;20055;-82
2024/03/09 02:18:02;;;;;;;31.85;17.60;;;;;;;;;;4942602;29;20031;-84
2024/03/09 02:20:30;;;;;;;31.15;18.58;;;;;;;;;;4946113;29;20067;-84
2024/03/09 02:22:57;;;;;;;31.65;17.33;;;;;;;;;;4921109;29;20054;-82
2024/03/09 02:25:24;;;;;;;28.67;17.08;;;;;;;;;;4933087;29;20030;-83
2024/03/09 02:27:52;;;;;;;32.15;18.45;;;;;;;;;;4945545;28;20031;-82
2024/03/09 02:30:19;;;;;;;31.90;17.38;;;;;;;;;;4945416;29;20058;-82
2024/03/09 02:32:44;;;;;;;32.88;18.80;;;;;;;;;;4946441;29;20062;-82
2024/03/09 02:35:09;;;;;;;32.50;17.65;;;;;;;;;;4946892;28;20504;-83
2024/03/09 02:37:35;;;;;;;30.65;17.35;;;;;;;;;;4944850;29;20164;-82
2024/03/09 02:40:03;;;;;;;31.02;17.85;;;;;;;;;;4944874;29;20405;-82
2024/03/09 02:42:28;;;;;;;30.73;17.10;;;;;;;;;;4928071;29;20470;-82
2024/03/09 02:44:53;;;;;;;30.63;17.30;;;;;;;;;;4947624;29;20039;-82
2024/03/09 02:47:21;;;;;;;33.25;17.23;;;;;;;;;;4944213;28;20477;-82
2024/03/09 02:49:46;;;;;;;29.48;17.00;;;;;;;;;;4944887;29;20038;-82
2024/03/09 02:52:12;;;;;;;32.22;17.73;;;;;;;;;;4934711;28;20032;-82
2024/03/09 02:54:37;;;;;;;29.17;17.05;;;;;;;;;;4928047;29;20050;-82
2024/03/09 02:57:06;;;;;;;35.33;18.90;;;;;;;;;;4927224;29;20040;-82
2024/03/09 02:59:33;;;;;;;30.90;18.13;;;;;;;;;;4928150;29;20520;-82
2024/03/09 03:02:02;;;;;;;29.35;16.55;;;;;;;;;;4928931;29;20038;-82
2024/03/09 03:04:29;;;;;;;31.00;17.15;;;;;;;;;;4929607;28;20035;-83
2024/03/09 03:06:54;;;;;;;28.63;16.65;;;;;;;;;;4931122;29;20024;-82
2024/03/09 03:09:20;;;;;;;30.88;17.98;;;;;;;;;;4926189;29;20407;-82
2024/03/09 03:11:46;;;;;;;32.55;18.40;;;;;;;;;;4927868;29;20127;-83
2024/03/09 03:14:11;;;;;;;32.35;18.90;;;;;;;;;;4913219;29;20038;-82
2024/03/09 03:16:37;;;;;;;31.75;18.45;;;;;;;;;;4927672;29;21375;-82
2024/03/09 03:19:07;;;;;;;31.83;17.25;;;;;;;;;;4928674;29;20031;-83
2024/03/09 03:21:34;;;;;;;32.20;18.70;;;;;;;;;;4933802;29;20026;-82
2024/03/09 03:24:00;;;;;;;31.23;16.67;;;;;;;;;;4931213;29;20066;-83
2024/03/09 03:26:25;;;;;;;31.63;17.50;;;;;;;;;;4930520;29;20034;-83
2024/03/09 03:28:52;;;;;;;29.13;17.02;;;;;;;;;;4931332;29;20039;-83
2024/03/09 03:31:19;;;;;;;31.02;17.67;;;;;;;;;;4931849;29;20027;-83
2024/03/09 03:33:45;;;;;;;32.15;17.50;;;;;;;;;;4931754;29;20035;-82
2024/03/09 03:36:13;;;;;;;30.08;17.35;;;;;;;;;;4931090;29;21443;-83
2024/03/09 03:38:41;;;;;;;32.13;16.55;;;;;;;;;;4929594;29;20036;-82
2024/03/09 03:41:10;;;;;;;28.33;16.38;;;;;;;;;;4931879;29;20055;-82
2024/03/09 03:43:37;;;;;;;30.00;16.52;;;;;;;;;;4931421;29;20028;-83
2024/03/09 03:46:04;;;;;;;30.48;17.10;;;;;;;;;;4917043;29;20336;-82
2024/03/09 03:48:30;;;;;;;31.83;17.55;;;;;;;;;;4930436;29;20023;-82
2024/03/09 03:50:56;;;;;;;29.92;17.42;;;;;;;;;;4932610;29;20031;-82
2024/03/09 03:53:22;;;;;;;33.78;18.58;;;;;;;;;;4931409;29;20118;-83
2024/03/09 03:55:47;;;;;;;33.35;17.58;;;;;;;;;;4930783;29;20561;-83
2024/03/09 03:58:15;;;;;;;30.00;17.15;;;;;;;;;;4931777;29;20043;-83
2024/03/09 04:00:41;;;;;;;30.05;17.13;;;;;;;;;;4930334;29;20028;-82
2024/03/09 04:03:07;;;;;;;32.17;18.02;;;;;;;;;;4934139;28;20027;-82
2024/03/09 04:05:33;;;;;;;30.77;16.52;;;;;;;;;;4936304;29;20039;-82
2024/03/09 04:07:59;;;;;;;28.52;16.95;;;;;;;;;;4929487;29;20552;-82
2024/03/09 04:10:24;;;;;;;33.28;16.83;;;;;;;;;;4930187;29;20458;-82
2024/03/09 04:12:50;;;;;;;29.55;16.85;;;;;;;;;;4932101;29;20402;-82
2024/03/09 04:15:15;;;;;;;33.58;17.98;;;;;;;;;;4931026;29;20027;-82
2024/03/09 04:17:42;;;;;;;29.38;16.52;;;;;;;;;;4929310;29;20524;-82
2024/03/09 04:20:15;;;;;;;32.30;17.95;;;;;;;;;;4929540;29;20027;-82
2024/03/09 04:22:41;;;;;;;29.63;16.30;;;;;;;;;;4936555;29;20024;-82
2024/03/09 04:25:08;;;;;;;28.00;15.90;;;;;;;;;;4929334;29;21699;-82
2024/03/09 04:27:34;;;;;;;29.33;17.30;;;;;;;;;;4914522;29;20031;-82
2024/03/09 04:30:00;;;;;;;33.47;16.77;;;;;;;;;;4913764;29;20067;-82
2024/03/09 04:32:27;;;;;;;31.63;16.52;;;;;;;;;;4931153;29;20035;-76
2024/03/09 04:34:53;;;;;;;30.02;16.80;;;;;;;;;;4930929;29;20028;-76
2024/03/09 04:37:27;;;;;;;30.30;17.15;;;;;;;;;;4929566;29;20119;-76
2024/03/09 04:39:56;;;;;;;30.08;16.00;;;;;;;;;;4931954;29;20074;-76
2024/03/09 04:42:25;;;;;;;31.77;17.42;;;;;;;;;;4930918;29;20056;-75
2024/03/09 04:44:53;;;;;;;29.88;16.33;;;;;;;;;;4931153;29;20035;-76
2024/03/09 04:47:19;;;;;;;29.42;16.63;;;;;;;;;;4915300;29;20035;-76
2024/03/09 04:49:47;;;;;;;30.50;17.20;;;;;;;;;;4916377;29;20035;-76
2024/03/09 04:52:13;;;;;;;28.63;16.27;;;;;;;;;;4929541;29;20032;-78
2024/03/09 04:54:43;;;;;;;29.27;15.05;;;;;;;;;;4930055;29;20091;-76
2024/03/09 04:57:17;;;;;;;32.42;17.00;;;;;;;;;;4930468;29;20024;-76
2024/03/09 04:59:45;;;;;;;29.27;16.45;;;;;;;;;;4929617;29;20035;-76
2024/03/09 05:02:11;;;;;;;28.83;15.95;;;;;;;;;;4929839;29;20027;-76
2024/03/09 05:04:36;;;;;;;29.50;16.63;;;;;;;;;;4929807;28;20050;-76
2024/03/09 05:07:03;;;;;;;29.52;16.05;;;;;;;;;;4930239;29;20035;-75
2024/03/09 05:09:29;;;;;;;29.35;16.15;;;;;;;;;;4927991;29;20036;-76
2024/03/09 05:11:54;;;;;;;28.38;15.52;;;;;;;;;;4914212;29;20082;-76
2024/03/09 05:14:21;;;;;;;27.10;15.68;;;;;;;;;;4931009;29;20162;-75
2024/03/09 05:16:46;;;;;;;28.60;16.20;;;;;;;;;;4927574;29;20036;-75
2024/03/09 05:19:12;;;;;;;31.65;15.82;;;;;;;;;;4915285;29;20031;-75
2024/03/09 05:21:38;;;;;;;28.08;15.02;;;;;;;;;;4928765;29;20378;-75
2024/03/09 05:24:05;;;;;;;28.27;15.38;;;;;;;;;;4928071;29;20032;-76
2024/03/09 05:26:32;;;;;;;29.75;15.27;;;;;;;;;;4929743;29;20106;-75
2024/03/09 05:28:58;;;;;;;25.85;14.75;;;;;;;;;;4929153;29;20039;-76
2024/03/09 05:31:27;;;;;;;27.20;15.10;;;;;;;;;;4930042;29;20032;-76
2024/03/09 05:33:56;;;;;;;29.17;15.73;;;;;;;;;;4911498;29;20139;-76
2024/03/09 05:36:21;;;;;;;25.00;15.25;;;;;;;;;;4929139;29;20039;-76
2024/03/09 05:38:50;;;;;;;27.75;15.05;;;;;;;;;;4929435;29;20028;-76
2024/03/09 05:41:19;;;;;;;27.88;15.93;;;;;;;;;;4912482;29;20036;-76
2024/03/09 05:43:46;;;;;;;25.98;15.10;;;;;;;;;;4931420;29;20030;-83
2024/03/09 05:46:18;;;;;;;25.92;14.60;;;;;;;;;;4930514;29;20110;-83
2024/03/09 05:48:45;;;;;;;26.48;14.30;;;;;;;;;;4929341;29;20036;-82
2024/03/09 05:51:14;;;;;;;24.45;14.10;;;;;;;;;;4928292;29;20171;-82
2024/03/09 05:53:43;;;;;;;25.48;15.13;;;;;;;;;;4929204;29;20043;-82
2024/03/09 05:56:11;;;;;;;26.73;15.52;;;;;;;;;;4930353;29;20110;-83
2024/03/09 05:58:37;;;;;;;28.60;16.17;;;;;;;;;;4926302;29;20028;-82
2024/03/09 06:01:03;;;;;;;27.58;15.32;;;;;;;;;;4928236;29;20034;-82
2024/03/09 06:03:28;;;;;;;25.90;15.00;;;;;;;;;;4928122;28;20631;-82
2024/03/09 06:05:54;;;;;;;28.95;15.50;;;;;;;;;;4928999;29;20031;-82
2024/03/09 06:08:19;;;;;;;25.70;15.20;;;;;;;;;;4927760;29;20464;-82
2024/03/09 06:10:48;;;;;;;25.45;14.60;;;;;;;;;;4926216;29;20036;-84
2024/03/09 06:13:17;;;;;;;25.13;15.38;;;;;;;;;;4929551;29;20059;-84
2024/03/09 06:15:45;;;;;;;26.10;14.95;;;;;;;;;;4914600;29;20114;-84
2024/03/09 06:18:10;;;;;;;24.08;14.23;;;;;;;;;;4916608;29;20032;-83
2024/03/09 06:20:37;;;;;;;28.27;15.63;;;;;;;;;;4928532;29;20391;-83
2024/03/09 06:23:03;;;;;;;25.73;14.45;;;;;;;;;;4929539;29;20031;-82
2024/03/09 06:25:31;;;;;;;26.95;14.43;;;;;;;;;;4911915;29;20032;-82
2024/03/09 06:27:59;;;;;;;26.25;14.20;;;;;;;;;;4912446;29;20552;-82
2024/03/09 06:30:26;;;;;;;26.05;14.77;;;;;;;;;;4929748;29;20040;-82
2024/03/09 06:32:53;;;;;;;27.33;14.85;;;;;;;;;;4928471;29;20027;-83
2024/03/09 06:35:19;;;;;;;27.27;14.70;;;;;;;;;;4928491;29;20089;-84
2024/03/09 06:38:07;;;;;;;27.15;14.93;;;;;;;;;;4911800;29;20036;-84
2024/03/09 06:40:41;;;;;;;24.58;14.63;;;;;;;;;;4910508;29;20123;-84
2024/03/09 06:43:08;;;;;;;25.65;14.40;;;;;;;;;;4936116;29;20019;-84
2024/03/09 06:45:37;;;;;;;25.92;13.70;;;;;;;;;;4928801;29;20036;-84
2024/03/09 06:48:03;;;;;;;24.40;13.90;;;;;;;;;;4927726;29;20039;-82
2024/03/09 06:50:31;;;;;;;25.63;14.60;;;;;;;;;;4928672;29;20521;-84
2024/03/09 06:52:58;;;;;;;26.85;14.82;;;;;;;;;;4912251;29;20032;-82
2024/03/09 06:55:29;;;;;;;28.80;15.80;;;;;;;;;;4931100;29;20498;-81
2024/03/09 06:57:55;;;;;;;25.85;14.93;;;;;;;;;;4932630;29;20502;-82
2024/03/09 07:00:21;;;;;;;24.38;14.60;;;;;;;;;;4933183;29;20027;-82
2024/03/09 07:02:49;;;;;;;26.80;14.20;;;;;;;;;;4915076;29;20027;-76
2024/03/09 07:05:15;;;;;;;27.63;15.32;;;;;;;;;;4915607;28;20031;-76
2024/03/09 07:07:43;;;;;;;23.95;14.30;;;;;;;;;;4931165;29;20042;-76
2024/03/09 07:10:12;;;;;;;26.35;14.40;;;;;;;;;;4931637;29;20509;-76
2024/03/09 07:12:41;;;;;;;26.17;14.52;;;;;;;;;;4930542;29;20038;-76
2024/03/09 07:15:14;;;;;;;25.27;14.05;;;;;;;;;;4933640;29;20027;-76
2024/03/09 07:17:40;;;;;;;26.80;14.30;;;;;;;;;;4931734;29;20059;-76
2024/03/09 07:20:12;;;;;;;26.70;14.45;;;;;;;;;;4939174;29;20505;-75
2024/03/09 07:22:41;;;;;;;27.00;15.45;;;;;;;;;;4916405;29;20042;-76
2024/03/09 07:25:13;;;;;;;26.35;14.30;;;;;;;;;;4915950;29;20028;-76
2024/03/09 07:27:43;;;;;;;24.52;14.38;;;;;;;;;;4930614;29;20035;-76
2024/03/09 07:30:14;;;;;;;24.23;13.95;;;;;;;;;;4930424;29;20035;-77
2024/03/09 07:32:43;;;;;;;24.25;13.73;;;;;;;;;;4930733;29;20137;-76
2024/03/09 07:35:15;;;;;;;23.98;13.82;;;;;;;;;;4932780;29;20035;-76
2024/03/09 07:37:42;;;;;;;25.52;13.88;;;;;;;;;;4915276;29;20032;-76
2024/03/09 07:40:12;;;;;;;25.58;14.35;;;;;;;;;;4930512;29;20031;-76
2024/03/09 07:42:38;;;;;;;23.58;14.13;;;;;;;;;;4933541;29;20110;-76
2024/03/09 07:45:11;;;;;;;22.90;13.60;;;;;;;;;;4930022;29;20106;-75
2024/03/09 07:47:38;;;;;;;25.17;14.90;;;;;;;;;;4929892;29;20039;-76
2024/03/09 07:50:13;;;;;;;23.20;13.35;;;;;;;;;;4930239;29;20047;-75
2024/03/09 07:52:57;;;;;;;24.27;13.20;;;;;;;;;;4929349;29;20087;-76
2024/03/09 07:55:25;;;;;;;24.23;13.88;;;;;;;;;;4928718;29;20039;-75
2024/03/09 07:58:00;;;;;;;24.08;12.90;;;;;;;;;;4922928;29;20028;-78
2024/03/09 08:00:28;;;;;;;22.05;13.15;;;;;;;;;;4931685;29;20058;-76
2024/03/09 08:02:55;;;;;;;22.58;12.93;;;;;;;;;;4930157;29;20446;-77
2024/03/09 08:05:22;;;;;;;23.52;13.60;;;;;;;;;;4917310;28;20027;-76
2024/03/09 08:07:49;;;;;;;21.38;12.02;;;;;;;;;;4934059;29;20031;-76
2024/03/09 08:10:17;;;;;;;23.00;13.40;;;;;;;;;;4935051;29;20118;-76
2024/03/09 08:12:43;;;;;;;22.33;12.35;;;;;;;;;;4939172;29;20028;-83
2024/03/09 08:15:11;;;;;;;18.60;12.02;;;;;;;;;;4937043;29;20032;-84
2024/03/09 08:17:37;;;;;;;22.02;12.63;;;;;;;;;;4934645;29;20031;-84
2024/03/09 08:20:06;;;;;;;23.63;12.98;;;;;;;;;;4940701;29;20074;-83
2024/03/09 08:22:39;;;;;;;23.83;13.45;;;;;;;;;;4919219;29;20020;-83
2024/03/09 08:25:07;;;;;;;22.60;12.60;;;;;;;;;;4938538;29;20030;-83
2024/03/09 08:27:38;;;;;;;22.27;12.40;;;;;;;;;;4923148;29;20024;-84
2024/03/09 08:30:14;;;;;;;23.85;14.15;;;;;;;;;;4925014;29;20035;-85
2024/03/09 08:32:46;;;;;;;22.42;13.48;;;;;;;;;;4934584;29;20027;-84
2024/03/09 08:35:14;;;;;;;23.13;14.35;;;;;;;;;;4937110;28;20031;-83
2024/03/09 08:37:41;;;;;;;23.52;12.98;;;;;;;;;;4928070;29;20035;-84
2024/03/09 08:40:11;;;;;;;20.98;11.77;;;;;;;;;;4920314;29;20034;-85
2024/03/09 08:42:37;;;;;;;22.15;12.52;;;;;;;;;;4922716;29;20024;-84
2024/03/09 08:45:09;;;;;;;20.60;12.45;;;;;;;;;;4934935;29;20130;-84
2024/03/09 08:47:38;;;;;;;20.30;12.70;;;;;;;;;;4938337;29;20028;-84
2024/03/09 08:50:04;;;;;;;19.10;12.45;;;;;;;;;;4939334;29;20024;-83
2024/03/09 08:52:32;;;;;;;23.27;13.60;;;;;;;;;;4917248;29;20034;-83
2024/03/09 08:54:58;;;;;;;21.83;13.35;;;;;;;;;;4936825;29;20027;-84
2024/03/09 08:57:24;;;;;;;22.10;11.95;;;;;;;;;;4936972;29;20040;-84
2024/03/09 08:59:53;;;;;;;20.80;12.63;;;;;;;;;;4943880;29;20066;-84
2024/03/09 09:02:21;;;;;;;19.73;12.55;;;;;;;;;;4935711;29;20458;-83
2024/03/09 09:04:46;;;;;;;19.60;12.60;;;;;;;;;;4934988;28;20062;-83
2024/03/09 09:07:12;;;;;;;20.17;12.88;;;;;;;;;;4933945;29;20047;-83
2024/03/09 09:09:37;;;;;;;20.25;12.50;;;;;;;;;;4936992;29;20035;-84
2024/03/09 09:12:05;;;;;;;22.25;13.07;;;;;;;;;;4913079;29;20031;-83
2024/03/09 09:14:30;;;;;;;23.00;12.55;;;;;;;;;;4913362;29;20112;-84
2024/03/09 09:16:56;;;;;;;20.42;12.23;;;;;;;;;;4922786;29;20118;-83
2024/03/09 09:19:22;;;;;;;18.73;11.32;;;;;;;;;;4925682;29;20383;-83
2024/03/09 09:21:48;;;;;;;18.05;11.38;;;;;;;;;;4923552;29;20070;-84
2024/03/09 09:24:13;;;;;;;20.17;11.73;;;;;;;;;;4923684;29;20039;-83
2024/03/09 09:26:39;;;;;;;20.23;11.85;;;;;;;;;;4924355;29;20040;-83
2024/03/09 09:29:04;;;;;;;22.15;12.02;;;;;;;;;;4929150;29;20032;-83
2024/03/09 09:31:32;;;;;;;17.85;10.88;;;;;;;;;;4923017;29;20483;-83
2024/03/09 09:33:58;;;;;;;17.48;10.70;;;;;;;;;;4927213;29;20042;-83
2024/03/09 09:36:26;;;;;;;17.63;11.07;;;;;;;;;;4932134;29;20031;-83
2024/03/09 09:38:52;;;;;;;17.65;10.73;;;;;;;;;;4920108;29;20028;-83
2024/03/09 09:41:18;;;;;;;16.77;10.95;;;;;;;;;;4933081;29;20134;-83
2024/03/09 09:43:47;;;;;;;18.73;11.27;;;;;;;;;;4932790;29;20031;-83
2024/03/09 09:46:13;;;;;;;16.40;10.10;;;;;;;;;;4928956;29;20035;-83
2024/03/09 09:48:39;;;;;;;16.55;10.60;;;;;;;;;;4934643;29;20028;-82
2024/03/09 09:51:09;;;;;;;18.83;10.57;;;;;;;;;;4938253;29;20019;-83
2024/03/09 09:53:35;;;;;;;18.05;10.90;;;;;;;;;;4933741;29;20051;-82
2024/03/09 09:56:00;;;;;;;19.23;10.63;;;;;;;;;;4941773;29;20081;-83
2024/03/09 09:58:26;;;;;;;15.85;10.77;;;;;;;;;;4936144;29;20423;-83
2024/03/09 10:00:55;;;;;;;16.40;9.90;;;;;;;;;;4932069;29;20074;-83
2024/03/09 10:03:21;;;;;;;16.75;10.18;;;;;;;;;;4934195;28;20141;-84
2024/03/09 10:05:47;;;;;;;16.23;9.77;;;;;;;;;;4936997;29;20031;-82
2024/03/09 10:08:14;;;;;;;15.45;9.95;;;;;;;;;;4921012;29;20019;-83
2024/03/09 10:10:45;;;;;;;17.45;10.57;;;;;;;;;;4926531;29;20027;-83
2024/03/09 10:13:12;;;;;;;18.10;10.38;;;;;;;;;;4936809;29;20121;-83
2024/03/09 10:15:40;;;;;;;16.98;10.90;;;;;;;;;;4932706;29;20050;-82
2024/03/09 10:18:07;;;;;;;19.33;10.82;;;;;;;;;;4937805;29;20026;-83
2024/03/09 10:20:34;;;;;;;16.65;10.88;;;;;;;;;;4927288;29;20050;-83
2024/03/09 10:23:04;;;;;;;17.30;9.77;;;;;;;;;;4930457;29;20028;-84
2024/03/09 10:25:35;;;;;;;18.42;10.70;;;;;;;;;;4934497;29;20497;-83
2024/03/09 10:28:13;;;;;;;16.25;10.85;;;;;;;;;;4930249;29;20498;-83
2024/03/09 10:30:39;;;;;;;18.67;10.00;;;;;;;;;;4917396;29;20028;-84
2024/03/09 10:33:11;;;;;;;16.20;10.63;;;;;;;;;;4935736;29;20480;-75
2024/03/09 10:35:40;;;;;;;19.17;10.35;;;;;;;;;;4934050;29;20040;-76
2024/03/09 10:38:08;;;;;;;17.92;10.38;;;;;;;;;;4933239;29;20080;-76
2024/03/09 10:40:34;;;;;;;20.48;10.82;;;;;;;;;;4939365;29;20114;-76
2024/03/09 10:43:01;;;;;;;16.20;10.88;;;;;;;;;;4915237;29;20020;-76
2024/03/09 10:45:33;;;;;;;17.95;10.40;;;;;;;;;;4919640;29;20070;-75
2024/03/09 10:48:05;;;;;;;18.35;10.95;;;;;;;;;;4920320;29;20095;-76
2024/03/09 10:50:33;;;;;;;16.13;10.70;;;;;;;;;;4889725;29;20093;-75
2024/03/09 10:53:08;;;;;;;16.52;10.63;;;;;;;;;;4925523;29;20031;-76
2024/03/09 10:55:47;;;;;;;15.60;9.98;;;;;;;;;;4922180;29;20427;-76
2024/03/09 10:58:17;;;;;;;14.13;9.55;;;;;;;;;;4928743;29;20027;-76
2024/03/09 11:00:49;;;;;;;14.65;9.48;;;;;;;;;;4906462;29;20039;-75
2024/03/09 11:03:18;;;;;;;17.58;10.15;;;;;;;;;;4911748;28;20086;-76
2024/03/09 11:05:45;;;;;;;18.30;10.85;;;;;;;;;;4909693;29;20035;-76
2024/03/09 11:08:10;;;;;;;18.95;10.07;;;;;;;;;;4922693;29;20042;-76
2024/03/09 11:10:41;;;;;;;17.67;10.00;;;;;;;;;;4924613;29;20035;-75
2024/03/09 11:13:08;;;;;;;17.13;10.18;;;;;;;;;;4904400;29;20024;-75
2024/03/09 11:15:37;;;;;;;16.65;9.98;;;;;;;;;;4910729;29;20031;-76
2024/03/09 11:18:09;;;;;;;15.93;10.02;;;;;;;;;;4920884;29;20031;-75
2024/03/09 11:20:47;;;;;;;15.77;9.90;;;;;;;;;;4925790;29;20032;-78
2024/03/09 11:23:13;;;;;;;16.80;10.60;;;;;;;;;;4914275;29;20479;-77
2024/03/09 11:25:49;;;;;;;15.35;9.85;;;;;;;;;;4907638;29;20095;-76
2024/03/09 11:28:16;;;;;;;17.58;10.55;;;;;;;;;;4923772;29;20077;-76
2024/03/09 11:31:10;;;;;;;16.35;9.90;;;;;;;;;;4921809;29;20505;-75
2024/03/09 11:33:50;;;;;;;15.18;9.05;;;;;;;;;;4921864;29;20419;-75
2024/03/09 11:36:40;;;;;;;17.25;9.73;;;;;;;;;;4923734;29;20047;-75
2024/03/09 11:39:06;;;;;;;14.15;8.93;;;;;;;;;;4904342;29;20386;-75
2024/03/09 11:41:35;;;;;;;15.80;9.18;;;;;;;;;;4902506;29;20490;-76
2024/03/09 11:44:00;;;;;;;16.50;9.25;;;;;;;;;;4911433;29;20042;-75
2024/03/09 11:46:29;;;;;;;14.40;9.38;;;;;;;;;;4920939;29;20039;-75
2024/03/09 11:48:54;;;;;;;15.55;9.50;;;;;;;;;;4925827;29;20082;-75
2024/03/09 11:51:22;;;;;;;16.27;9.85;;;;;;;;;;4922242;29;20907;-74
2024/03/09 11:53:48;;;;;;;15.68;9.52;;;;;;;;;;4924597;29;20132;-75
2024/03/09 11:56:15;;;;;;;17.42;10.05;;;;;;;;;;4924891;29;20088;-75
2024/03/09 11:58:40;;;;;;;15.27;9.70;;;;;;;;;;4930599;29;20031;-75
2024/03/09 12:01:05;;;;;;;15.32;10.02;;;;;;;;;;4917309;29;20468;-74
2024/03/09 12:03:31;;;;;;;16.42;10.05;;;;;;;;;;4924845;28;20107;-75
2024/03/09 12:05:56;;;;;;;14.82;9.48;;;;;;;;;;4917575;29;20024;-75
2024/03/09 12:08:22;;;;;;;14.75;9.30;;;;;;;;;;4919461;29;20450;-74
2024/03/09 12:10:48;;;;;;;14.73;9.48;;;;;;;;;;4924883;29;20438;-75
2024/03/09 12:13:15;;;;;;;16.90;9.98;;;;;;;;;;4918546;29;20511;-74
2024/03/09 12:15:41;;;;;;;15.02;9.88;;;;;;;;;;4927161;29;20167;-75
2024/03/09 12:18:07;;;;;;;15.20;9.20;;;;;;;;;;4907760;29;20035;-74
2024/03/09 12:20:34;;;;;;;14.43;9.05;;;;;;;;;;4923034;29;20039;-77
2024/03/09 12:22:59;;;;;;;13.48;8.50;;;;;;;;;;4921258;29;20466;-75
2024/03/09 12:25:25;;;;;;;13.32;8.77;;;;;;;;;;4924735;29;20035;-75
2024/03/09 12:27:50;;;;;;;14.45;8.75;;;;;;;;;;4910073;29;20035;-75
2024/03/09 12:30:16;;;;;;;12.65;8.45;;;;;;;;;;4905997;29;20035;-75
2024/03/09 12:32:42;;;;;;;14.00;8.57;;;;;;;;;;4922760;29;20043;-75
2024/03/09 12:35:08;;;;;;;14.13;9.32;;;;;;;;;;4920285;29;20414;-75
2024/03/09 12:37:38;;;;;;;15.10;9.00;;;;;;;;;;4924214;29;20062;-76
2024/03/09 12:40:18;;;;;;;13.65;8.55;;;;;;;;;;4921663;29;20173;-75
2024/03/09 12:42:45;;;;;;;13.32;8.75;;;;;;;;;;4916683;29;20020;-75
2024/03/09 12:45:25;;;;;;;13.43;8.27;;;;;;;;;;4915980;29;20074;-75
2024/03/09 12:47:54;;;;;;;14.63;8.95;;;;;;;;;;4915675;29;20023;-75
2024/03/09 12:50:21;;;;;;;16.80;9.65;;;;;;;;;;4919048;29;21065;-76
2024/03/09 12:52:50;;;;;;;14.75;8.88;;;;;;;;;;4917118;29;20046;-82
2024/03/09 12:55:20;;;;;;;14.45;8.70;;;;;;;;;;4929898;29;20032;-83
2024/03/09 12:57:49;;;;;;;13.40;8.70;;;;;;;;;;4919930;29;20027;-83
2024/03/09 13:00:19;;;;;;;14.05;9.15;;;;;;;;;;4904103;29;20038;-84
2024/03/09 13:02:48;;;;;;;15.73;9.38;;;;;;;;;;4917675;29;20441;-82
2024/03/09 13:05:24;;;;;;;16.45;8.85;;;;;;;;;;4924159;29;20032;-82
2024/03/09 13:07:52;;;;;;;16.42;8.93;;;;;;;;;;4917532;29;20042;-83
2024/03/09 13:10:35;;;;;;;16.65;9.30;;;;;;;;;;4920519;29;20444;-82
2024/03/09 13:13:04;;;;;;;15.82;8.52;;;;;;;;;;4916773;29;20051;-83
2024/03/09 13:15:30;;;;;;;14.18;9.43;;;;;;;;;;4924621;29;20035;-83
2024/03/09 13:17:57;;;;;;;14.88;9.85;;;;;;;;;;4917942;29;20441;-83
2024/03/09 13:20:31;;;;;;;15.55;9.38;;;;;;;;;;4906723;29;20035;-83
2024/03/09 13:23:01;;;;;;;14.63;8.63;;;;;;;;;;4926015;29;20028;-83
2024/03/09 13:25:27;;;;;;;13.20;8.88;;;;;;;;;;4926197;29;20580;-83
2024/03/09 13:27:52;;;;;;;18.02;9.90;;;;;;;;;;4923478;29;20031;-83
2024/03/09 13:30:17;;;;;;;18.10;9.60;;;;;;;;;;4917953;29;20581;-83
2024/03/09 13:32:44;;;;;;;14.35;9.23;;;;;;;;;;4922865;29;20068;-83
2024/03/09 13:35:12;;;;;;;14.13;9.25;;;;;;;;;;4903740;29;20596;-83
2024/03/09 13:37:39;;;;;;;14.57;8.95;;;;;;;;;;4925622;29;20035;-83
2024/03/09 13:40:06;;;;;;;14.02;9.05;;;;;;;;;;4914467;29;20636;-82
2024/03/09 13:42:32;;;;;;;16.17;9.60;;;;;;;;;;4924988;29;20043;-82
2024/03/09 13:44:57;;;;;;;14.55;8.95;;;;;;;;;;4922010;29;20032;-83
2024/03/09 13:47:24;;;;;;;16.75;8.98;;;;;;;;;;4912940;29;20036;-82
2024/03/09 13:49:50;;;;;;;16.35;9.80;;;;;;;;;;4926971;29;20075;-82
2024/03/09 13:52:16;;;;;;;19.38;9.43;;;;;;;;;;4899935;29;20522;-83
2024/03/09 13:54:44;;;;;;;14.80;9.07;;;;;;;;;;4923310;29;20059;-83
2024/03/09 13:57:11;;;;;;;14.82;9.45;;;;;;;;;;4914609;29;20035;-82
2024/03/09 13:59:36;;;;;;;13.90;9.10;;;;;;;;;;4924277;29;20039;-83
2024/03/09 14:02:02;;;;;;;17.73;9.90;;;;;;;;;;4914561;29;20118;-82
2024/03/09 14:04:30;;;;;;;16.02;10.13;;;;;;;;;;4881399;29;20150;-75
2024/03/09 14:06:55;;;;;;;14.65;8.70;;;;;;;;;;4920335;29;20051;-75
2024/03/09 14:09:21;;;;;;;14.60;8.68;;;;;;;;;;4924779;29;20043;-74
2024/03/09 14:11:46;;;;;;;14.98;8.65;;;;;;;;;;4907799;29;20448;-75
2024/03/09 14:14:14;;;;;;;16.45;9.15;;;;;;;;;;4920819;29;20410;-74
2024/03/09 14:16:39;;;;;;;13.13;8.18;;;;;;;;;;4924651;29;20036;-75
2024/03/09 14:19:06;;;;;;;13.05;8.07;;;;;;;;;;4916821;29;20031;-77
2024/03/09 14:21:31;;;;;;;14.73;9.00;;;;;;;;;;4904384;29;20027;-76